Time;durP1;ratioP1;P1;durP2;ratioP2;P2;SDS_P1;SDS_P2;PMS_P1;PMS_P2;Temp;Humidity;BMP_temperature;BMP_pressure;BME280_temperature;BME280_humidity;BME280_pressure;Samples;Min_cycle;Max_cycle;Signal;HPM_P1;HPM_P2
2023/07/04 12:38:08;;;;;;;17.50;7.40;;;;;;;29.12;23.89;99668.30;100104;1291;636283;-70
2023/07/04 12:40:35;;;;;;;14.20;7.10;;;;;;;29.11;24.31;99670.77;102952;1266;137196;-69
2023/07/04 12:43:04;;;;;;;11.50;7.50;;;;;;;29.08;24.24;99664.64;102562;1269;108143;-69
2023/07/04 12:45:35;;;;;;;11.20;7.30;;;;;;;28.94;24.33;99667.34;102636;1263;136958;-69
2023/07/04 12:48:09;;;;;;;17.80;8.40;;;;;;;28.82;24.45;99667.73;103416;1257;108115;-69
2023/07/04 12:50:49;;;;;;;11.90;7.90;;;;;;;28.80;24.29;99679.92;103400;1259;167397;-70
2023/07/04 12:53:17;;;;;;;17.40;8.40;;;;;;;28.89;24.35;99665.64;103276;1258;136742;-69
2023/07/04 12:55:46;;;;;;;14.50;7.60;;;;;;;28.94;24.06;99670.81;103383;1253;108645;-69
2023/07/04 12:58:15;;;;;;;17.60;8.10;;;;;;;28.91;24.49;99671.14;103499;1254;136886;-69
2023/07/04 13:00:46;;;;;;;15.00;8.70;;;;;;;28.91;24.55;99669.98;103461;1254;107502;-69
2023/07/04 13:03:17;;;;;;;24.00;9.10;;;;;;;28.91;24.69;99668.09;103527;1252;137255;-69
2023/07/04 13:05:46;;;;;;;14.50;9.20;;;;;;;28.88;24.44;99669.27;103368;1253;94990;-69
2023/07/04 13:08:16;;;;;;;15.90;10.00;;;;;;;28.84;24.29;99669.79;103317;1253;109125;-68
2023/07/04 13:10:48;;;;;;;15.70;9.60;;;;;;;28.82;24.31;99669.30;103229;1256;137588;-69
2023/07/04 13:13:30;;;;;;;14.60;9.50;;;;;;;28.86;24.27;99667.41;103399;1253;108995;-69
2023/07/04 13:16:12;;;;;;;12.70;8.70;;;;;;;28.83;24.40;99664.16;104430;1254;137708;-70
2023/07/04 13:18:41;;;;;;;13.60;8.10;;;;;;;28.81;24.33;99662.93;104813;1253;93759;-70
2023/07/04 13:21:09;;;;;;;13.90;9.50;;;;;;;28.86;24.31;99659.02;104829;1253;107430;-69
2023/07/04 13:23:38;;;;;;;17.00;9.50;;;;;;;28.92;24.25;99665.87;104781;1252;94570;-69
2023/07/04 13:26:19;;;;;;;21.80;10.10;;;;;;;28.97;24.38;99659.21;104778;1253;108691;-71
2023/07/04 13:28:52;;;;;;;19.40;10.40;;;;;;;29.00;24.32;99656.53;104688;1254;137222;-70
2023/07/04 13:31:39;;;;;;;14.30;9.80;;;;;;;29.04;24.50;99660.80;104048;1258;94369;-70
2023/07/04 13:34:18;;;;;;;21.20;10.90;;;;;;;29.10;24.30;99660.34;103925;1254;137549;-69
2023/07/04 13:36:47;;;;;;;21.20;10.60;;;;;;;29.13;24.39;99661.04;103779;1253;95154;-69
2023/07/04 13:39:15;;;;;;;18.70;11.60;;;;;;;29.12;24.20;99651.85;103430;1253;137261;-71
2023/07/04 13:41:48;;;;;;;20.90;12.90;;;;;;;29.07;24.12;99664.42;103925;1256;107117;-69
2023/07/04 13:44:16;;;;;;;22.50;11.50;;;;;;;28.95;24.20;99660.91;103805;1256;95086;-70
2023/07/04 13:47:06;;;;;;;16.70;11.10;;;;;;;28.92;24.37;99660.20;103093;1254;137098;-70
2023/07/04 13:49:33;;;;;;;20.20;10.00;;;;;;;28.89;24.32;99655.08;103601;1256;95077;-70
2023/07/04 13:52:00;;;;;;;14.50;10.00;;;;;;;28.83;24.30;99664.02;103247;1256;137044;-70
2023/07/04 13:54:27;;;;;;;18.70;10.40;;;;;;;28.81;24.48;99666.39;103408;1254;108598;-69
2023/07/04 13:56:54;;;;;;;19.10;10.80;;;;;;;28.79;24.80;99662.11;103379;1256;95185;-69
2023/07/04 13:59:22;;;;;;;19.60;10.00;;;;;;;28.79;24.91;99663.27;103304;1256;136977;-69
2023/07/04 14:01:49;;;;;;;20.80;10.60;;;;;;;28.78;25.17;99663.83;103338;1254;95052;-69
2023/07/04 14:04:19;;;;;;;13.80;10.30;;;;;;;28.77;24.70;99664.69;103349;1253;139326;-70
2023/07/04 14:06:51;;;;;;;19.80;10.60;;;;;;;28.65;24.89;99661.98;103340;1257;107743;-69
2023/07/04 14:09:20;;;;;;;16.10;10.10;;;;;;;28.58;24.93;99661.26;103308;1256;137393;-70
2023/07/04 14:11:47;;;;;;;17.60;10.30;;;;;;;28.59;25.00;99657.75;103407;1256;108622;-69
2023/07/04 14:14:13;;;;;;;23.00;12.90;;;;;;;28.63;24.84;99652.45;103440;1253;95187;-69
2023/07/04 14:16:44;;;;;;;19.50;13.20;;;;;;;28.61;24.28;99662.26;103435;1254;137142;-69
2023/07/04 14:19:30;;;;;;;;;;;;;;;28.51;24.19;99654.67;103329;1259;108000;-71
2023/07/04 14:22:00;;;;;;;20.00;13.50;;;;;;;28.49;24.37;99657.95;103358;1256;123518;-69
2023/07/04 14:24:28;;;;;;;19.10;11.70;;;;;;;28.50;24.29;99658.98;103384;1256;107700;-69
2023/07/04 14:26:55;;;;;;;15.70;11.80;;;;;;;28.48;24.49;99661.14;103480;1256;95163;-70
2023/07/04 14:29:24;;;;;;;18.70;11.10;;;;;;;28.49;24.36;99661.20;103541;1254;137038;-69
2023/07/04 14:31:52;;;;;;;17.70;11.60;;;;;;;28.51;24.50;99658.70;103405;1256;107861;-68
2023/07/04 14:34:21;;;;;;;17.40;12.10;;;;;;;28.49;24.27;99662.88;104614;1253;137581;-67
2023/07/04 14:36:48;;;;;;;18.90;11.90;;;;;;;28.45;24.43;99664.19;104780;1254;109621;-69
2023/07/04 14:39:15;;;;;;;16.30;10.90;;;;;;;28.41;24.44;99658.89;103743;1254;137953;-68
2023/07/04 14:41:42;;;;;;;21.50;11.60;;;;;;;28.42;24.60;99655.67;103581;1256;109058;-70
2023/07/04 14:44:12;;;;;;;17.40;11.60;;;;;;;28.44;24.46;99653.04;103512;1252;107857;-68
2023/07/04 14:46:39;;;;;;;18.20;11.90;;;;;;;28.50;24.74;99648.21;103447;1255;137346;-67
2023/07/04 14:49:06;;;;;;;16.90;11.40;;;;;;;28.57;24.31;99650.79;103594;1251;108320;-68
2023/07/04 14:51:33;;;;;;;20.00;12.70;;;;;;;28.60;24.14;99645.27;103457;1250;137420;-68
2023/07/04 14:54:00;;;;;;;19.20;12.50;;;;;;;28.59;23.83;99649.64;103632;1251;108295;-67
2023/07/04 14:56:28;;;;;;;19.70;13.00;;;;;;;28.57;23.75;99651.20;103532;1251;108404;-67
2023/07/04 14:59:15;;;;;;;20.30;11.90;;;;;;;28.58;23.90;99654.37;103524;1250;137270;-68
2023/07/04 15:01:42;;;;;;;21.20;12.80;;;;;;;28.57;23.97;99648.11;103541;1251;108147;-68
2023/07/04 15:04:09;;;;;;;20.00;12.60;;;;;;;28.56;23.94;99652.22;103424;1256;137602;-68
2023/07/04 15:06:36;;;;;;;22.10;13.50;;;;;;;28.55;24.08;99650.30;103559;1251;108190;-68
2023/07/04 15:09:03;;;;;;;19.20;13.90;;;;;;;28.58;23.96;99646.10;103572;1251;108806;-68
2023/07/04 15:11:32;;;;;;;21.20;13.40;;;;;;;28.59;24.01;99650.41;103582;1255;95173;-68
2023/07/04 15:13:59;;;;;;;21.50;12.80;;;;;;;28.60;24.05;99644.73;103571;1250;108851;-68
2023/07/04 15:16:27;;;;;;;20.40;13.00;;;;;;;28.62;24.15;99642.88;103422;1254;137489;-68
2023/07/04 15:18:54;;;;;;;21.30;13.60;;;;;;;28.68;24.16;99641.42;103601;1256;110530;-68
2023/07/04 15:21:21;;;;;;;20.20;13.30;;;;;;;28.73;24.17;99637.98;103457;1255;137549;-68
2023/07/04 15:23:48;;;;;;;20.70;12.60;;;;;;;28.78;24.33;99641.73;103617;1250;95086;-68
2023/07/04 15:26:16;;;;;;;20.00;13.80;;;;;;;28.77;24.05;99645.53;103636;1250;108737;-69
2023/07/04 15:28:53;;;;;;;20.70;12.50;;;;;;;28.73;24.07;99639.63;103431;1255;138655;-70
2023/07/04 15:31:21;;;;;;;20.40;13.10;;;;;;;28.67;24.02;99641.88;103477;1250;109025;-73
2023/07/04 15:33:49;;;;;;;19.70;13.70;;;;;;;28.61;24.21;99641.81;103377;1250;137723;-70
2023/07/04 15:36:17;;;;;;;18.80;13.30;;;;;;;28.51;24.19;99640.06;103950;1251;95108;-71
2023/07/04 15:38:44;;;;;;;20.80;13.60;;;;;;;28.41;24.38;99646.27;103536;1253;106234;-72
2023/07/04 15:41:11;;;;;;;18.00;13.70;;;;;;;28.29;24.64;99644.91;103392;1253;138550;-71
2023/07/04 15:43:39;;;;;;;24.80;13.80;;;;;;;28.18;24.73;99642.65;103436;1251;108413;-71
2023/07/04 15:46:10;;;;;;;25.20;14.00;;;;;;;28.05;24.81;99638.44;103198;1251;137744;-74
2023/07/04 15:48:38;;;;;;;18.70;13.20;;;;;;;27.92;25.02;99641.05;103515;1250;95093;-77
2023/07/04 15:51:06;;;;;;;19.80;13.30;;;;;;;27.84;25.19;99646.34;103423;1254;107558;-69
2023/07/04 15:53:33;;;;;;;19.00;12.60;;;;;;;27.78;25.35;99650.45;103401;1257;95039;-66
2023/07/04 15:56:03;;;;;;;17.30;11.90;;;;;;;27.75;25.60;99649.60;103415;1251;109337;-71
2023/07/04 15:58:31;;;;;;;17.60;12.40;;;;;;;27.69;25.80;99651.15;103253;1251;138101;-69
2023/07/04 16:00:59;;;;;;;19.30;11.90;;;;;;;27.62;25.89;99645.07;103420;1250;95110;-69
2023/07/04 16:03:27;;;;;;;20.40;12.80;;;;;;;27.57;26.17;99644.95;103381;1250;137562;-70
2023/07/04 16:05:59;;;;;;;15.90;12.30;;;;;;;27.54;26.25;99647.38;103425;1253;95084;-69
2023/07/04 16:08:28;;;;;;;22.20;12.60;;;;;;;27.51;26.37;99647.02;103492;1251;108587;-69
2023/07/04 16:10:57;;;;;;;21.50;12.70;;;;;;;27.50;26.41;99646.66;103381;1256;137991;-69
2023/07/04 16:13:25;;;;;;;17.70;12.10;;;;;;;27.49;26.33;99646.60;103454;1256;94982;-70
2023/07/04 16:15:52;;;;;;;21.30;13.00;;;;;;;27.45;26.26;99650.58;103419;1253;137197;-68
2023/07/04 16:18:20;;;;;;;20.20;14.30;;;;;;;27.39;26.33;99652.27;103523;1256;94966;-68
2023/07/04 16:20:48;;;;;;;19.00;11.90;;;;;;;27.35;26.11;99656.00;103472;1253;109501;-69
2023/07/04 16:23:15;;;;;;;19.80;12.80;;;;;;;27.31;26.28;99653.91;103365;1250;137402;-69
2023/07/04 16:25:45;;;;;;;23.20;12.80;;;;;;;27.30;26.62;99651.55;103567;1253;95101;-69
2023/07/04 16:28:13;;;;;;;18.10;12.00;;;;;;;27.30;26.61;99654.79;103331;1251;137742;-69
2023/07/04 16:30:43;;;;;;;17.70;12.10;;;;;;;27.28;26.58;99656.81;103537;1253;95074;-68
2023/07/04 16:33:11;;;;;;;21.70;13.10;;;;;;;27.27;26.77;99657.62;103459;1256;109161;-68
2023/07/04 16:35:39;;;;;;;16.40;13.20;;;;;;;27.26;26.72;99657.32;103371;1254;108503;-71
2023/07/04 16:38:06;;;;;;;20.40;13.50;;;;;;;27.27;26.97;99658.39;103438;1257;94978;-68
2023/07/04 16:40:36;;;;;;;30.30;15.00;;;;;;;27.27;27.01;99664.17;103370;1254;137402;-68
2023/07/04 16:43:03;;;;;;;24.60;14.00;;;;;;;27.27;26.82;99662.27;103430;1258;95101;-67
2023/07/04 16:45:31;;;;;;;27.50;16.00;;;;;;;27.26;26.95;99663.05;103378;1253;137394;-67
2023/07/04 16:48:01;;;;;;;27.20;14.70;;;;;;;27.26;27.09;99661.44;103431;1250;108727;-64
2023/07/04 16:50:28;;;;;;;24.40;14.80;;;;;;;27.26;27.20;99665.39;103514;1254;96473;-66
2023/07/04 16:52:58;;;;;;;24.50;14.10;;;;;;;27.27;26.99;99664.92;103712;1253;138416;-66
2023/07/04 16:55:26;;;;;;;21.70;14.40;;;;;;;27.28;27.34;99660.23;103625;1251;96529;-66
2023/07/04 16:57:53;;;;;;;26.60;15.30;;;;;;;27.27;27.42;99662.48;103472;1253;137452;-65
2023/07/04 17:00:21;;;;;;;19.50;14.10;;;;;;;27.25;27.22;99663.88;103765;1253;108676;-66
2023/07/04 17:02:48;;;;;;;23.70;14.70;;;;;;;27.23;27.26;99664.83;103711;1253;96289;-64
2023/07/04 17:05:16;;;;;;;22.60;15.30;;;;;;;27.20;27.22;99663.27;103427;1253;137720;-66
2023/07/04 17:07:44;;;;;;;24.20;14.70;;;;;;;27.18;26.93;99669.23;103560;1257;96405;-65
2023/07/04 17:10:13;;;;;;;23.40;16.20;;;;;;;27.15;27.10;99669.38;103522;1255;138171;-66
2023/07/04 17:12:40;;;;;;;27.10;16.90;;;;;;;27.10;27.29;99673.24;104925;1251;107825;-67
2023/07/04 17:15:09;;;;;;;25.40;16.30;;;;;;;27.04;27.03;99673.69;105007;1249;94507;-67
2023/07/04 17:17:36;;;;;;;24.60;17.30;;;;;;;26.97;27.15;99673.00;104939;1253;107255;-66
2023/07/04 17:20:03;;;;;;;24.60;17.60;;;;;;;26.90;27.19;99673.43;104929;1253;94243;-67
2023/07/04 17:22:31;;;;;;;26.70;17.90;;;;;;;26.83;27.10;99681.40;104733;1251;137711;-66
2023/07/04 17:24:58;;;;;;;24.80;18.00;;;;;;;26.73;27.15;99680.46;103490;1250;108145;-66
2023/07/04 17:27:40;;;;;;;27.20;17.90;;;;;;;26.65;27.33;99684.44;103396;1253;137863;-66
2023/07/04 17:30:09;;;;;;;24.80;17.70;;;;;;;26.57;27.31;99682.05;103454;1251;107963;-69
2023/07/04 17:32:36;;;;;;;24.60;17.30;;;;;;;26.50;27.63;99686.75;103671;1251;96500;-67
2023/07/04 17:35:05;;;;;;;26.40;18.70;;;;;;;26.42;27.58;99682.80;103409;1253;137582;-70
2023/07/04 17:37:32;;;;;;;27.30;18.60;;;;;;;26.33;27.82;99682.82;103684;1253;107652;-67
2023/07/04 17:40:00;;;;;;;27.30;18.80;;;;;;;26.27;27.92;99686.52;103377;1254;137993;-68
2023/07/04 17:42:28;;;;;;;26.30;19.30;;;;;;;26.21;28.09;99688.94;103443;1263;108485;-69
2023/07/04 17:44:56;;;;;;;28.60;19.60;;;;;;;26.14;28.11;99689.35;103461;1254;97065;-70
2023/07/04 17:47:23;;;;;;;25.40;19.50;;;;;;;26.07;28.37;99695.29;103367;1254;137287;-70
2023/07/04 17:49:51;;;;;;;25.80;18.20;;;;;;;25.99;28.35;99693.47;103415;1263;107674;-69
2023/07/04 17:52:18;;;;;;;27.90;19.20;;;;;;;25.92;28.29;99698.80;103455;1254;137588;-69
2023/07/04 17:54:45;;;;;;;29.00;19.30;;;;;;;25.86;28.58;99702.08;103492;1256;107071;-69
2023/07/04 17:57:12;;;;;;;26.80;18.90;;;;;;;25.78;28.82;99693.09;103407;1250;137697;-70
2023/07/04 17:59:51;;;;;;;24.90;18.80;;;;;;;25.73;29.09;99698.25;103496;1254;109491;-70
2023/07/04 18:02:19;;;;;;;28.30;20.10;;;;;;;25.67;29.13;99703.16;103424;1263;107601;-68
2023/07/04 18:04:45;;;;;;;28.10;20.30;;;;;;;25.62;29.24;99707.96;103477;1252;137538;-67
2023/07/04 18:07:13;;;;;;;24.20;18.80;;;;;;;25.55;29.43;99706.94;103464;1251;108163;-69
2023/07/04 18:09:44;;;;;;;29.00;19.80;;;;;;;25.48;29.49;99709.19;103453;1263;137770;-69
2023/07/04 18:12:12;;;;;;;28.80;20.10;;;;;;;25.41;29.55;99707.65;103536;1253;109640;-68
2023/07/04 18:14:38;;;;;;;26.50;19.40;;;;;;;25.34;29.66;99708.20;103582;1254;106495;-69
2023/07/04 18:17:06;;;;;;;28.80;20.50;;;;;;;25.28;29.89;99712.15;103481;1251;137623;-68
2023/07/04 18:19:34;;;;;;;29.00;19.80;;;;;;;25.23;29.84;99717.46;103707;1250;108066;-69
2023/07/04 18:22:01;;;;;;;27.30;20.70;;;;;;;25.17;30.06;99723.30;104236;1253;137793;-70
2023/07/04 18:24:28;;;;;;;28.20;19.80;;;;;;;25.11;30.16;99727.30;103555;1253;110202;-70
2023/07/04 18:26:55;;;;;;;31.20;19.30;;;;;;;25.03;30.28;99729.70;103674;1249;107824;-69
2023/07/04 18:29:22;;;;;;;27.30;20.40;;;;;;;24.96;30.35;99734.40;103493;1251;137725;-69
2023/07/04 18:31:52;;;;;;;30.30;20.10;;;;;;;24.90;30.29;99736.44;103513;1253;107853;-67
2023/07/04 18:34:19;;;;;;;29.90;20.20;;;;;;;24.84;30.67;99740.13;104068;1256;137595;-70
2023/07/04 18:36:47;;;;;;;31.70;22.10;;;;;;;24.78;31.03;99741.44;103530;1253;111549;-69
2023/07/04 18:39:14;;;;;;;32.20;20.70;;;;;;;24.70;31.05;99746.26;103403;1251;137894;-70
2023/07/04 18:41:42;;;;;;;30.90;20.20;;;;;;;24.63;31.06;99745.90;103692;1254;96540;-69
2023/07/04 18:44:10;;;;;;;28.00;20.00;;;;;;;24.57;31.09;99752.50;103840;1252;109059;-69
2023/07/04 18:46:42;;;;;;;29.40;20.20;;;;;;;24.50;31.27;99756.76;103618;1251;137644;-71
2023/07/04 18:49:13;;;;;;;28.90;20.10;;;;;;;24.44;31.46;99761.10;103751;1251;110867;-69
2023/07/04 18:51:42;;;;;;;29.30;20.60;;;;;;;24.37;31.69;99762.61;103418;1254;137805;-69
2023/07/04 18:54:13;;;;;;;28.80;21.00;;;;;;;24.31;31.69;99764.36;103967;1251;96420;-70
2023/07/04 18:56:43;;;;;;;28.50;20.20;;;;;;;24.24;31.92;99766.92;103705;1251;108427;-69
2023/07/04 18:59:15;;;;;;;29.00;20.30;;;;;;;24.17;32.01;99773.46;103572;1251;137770;-70
2023/07/04 19:01:44;;;;;;;30.70;19.80;;;;;;;24.11;32.09;99774.42;103564;1253;110959;-70
2023/07/04 19:04:12;;;;;;;28.40;20.20;;;;;;;24.06;32.37;99779.13;103786;1253;137766;-69
2023/07/04 19:06:40;;;;;;;26.90;19.50;;;;;;;24.00;32.43;99784.84;103494;1251;96590;-68
2023/07/04 19:09:09;;;;;;;26.50;19.80;;;;;;;23.94;32.50;99787.21;103917;1253;107579;-70
2023/07/04 19:11:41;;;;;;;28.70;20.40;;;;;;;23.89;32.68;99793.05;103530;1251;96411;-70
2023/07/04 19:14:11;;;;;;;27.00;20.30;;;;;;;23.82;32.94;99794.23;103505;1251;109492;-70
2023/07/04 19:16:41;;;;;;;29.20;18.70;;;;;;;23.74;33.01;99801.23;103512;1253;137707;-68
2023/07/04 19:19:09;;;;;;;29.40;20.10;;;;;;;23.68;33.06;99800.38;103548;1254;96489;-69
2023/07/04 19:21:38;;;;;;;30.40;19.80;;;;;;;23.62;33.13;99805.69;103433;1251;137532;-69
2023/07/04 19:24:05;;;;;;;26.40;20.00;;;;;;;23.58;33.29;99805.95;103471;1251;96408;-70
2023/07/04 19:26:32;;;;;;;28.10;20.80;;;;;;;23.52;33.53;99812.11;103783;1253;110436;-69
2023/07/04 19:29:04;;;;;;;28.40;19.90;;;;;;;23.46;33.65;99809.24;103688;1251;137566;-70
2023/07/04 19:31:31;;;;;;;27.40;18.80;;;;;;;23.41;33.69;99813.13;103534;1251;96556;-69
2023/07/04 19:33:58;;;;;;;27.50;18.30;;;;;;;23.36;33.84;99817.53;103467;1251;137352;-69
2023/07/04 19:36:26;;;;;;;26.90;19.10;;;;;;;23.31;34.07;99817.97;103614;1251;96410;-69
2023/07/04 19:38:53;;;;;;;32.50;19.40;;;;;;;23.25;34.21;99819.20;103695;1251;111072;-69
2023/07/04 19:41:20;;;;;;;30.90;19.20;;;;;;;23.20;34.27;99824.65;103462;1253;137558;-69
2023/07/04 19:43:47;;;;;;;27.30;19.10;;;;;;;23.16;34.36;99823.63;103930;1251;96456;-69
2023/07/04 19:46:15;;;;;;;28.60;18.90;;;;;;;23.11;34.55;99823.33;103423;1251;138533;-68
2023/07/04 19:48:42;;;;;;;27.90;19.70;;;;;;;23.07;34.67;99828.54;103476;1251;96439;-69
2023/07/04 19:51:13;;;;;;;28.50;19.80;;;;;;;23.02;34.85;99831.84;103423;1251;109830;-69
2023/07/04 19:53:41;;;;;;;35.20;19.90;;;;;;;22.96;34.88;99830.90;104181;1251;108523;-69
2023/07/04 19:56:11;;;;;;;29.30;20.10;;;;;;;22.91;35.00;99833.86;103515;1253;96540;-69
2023/07/04 19:58:38;;;;;;;28.50;20.00;;;;;;;22.85;35.04;99839.71;103319;1251;137439;-69
2023/07/04 20:01:08;;;;;;;27.20;19.70;;;;;;;22.81;35.19;99839.38;103453;1254;96411;-69
2023/07/04 20:03:36;;;;;;;27.00;19.90;;;;;;;22.76;35.25;99839.56;103459;1251;137636;-70
2023/07/04 20:06:06;;;;;;;32.40;20.60;;;;;;;22.72;35.39;99839.02;103462;1251;107867;-70
2023/07/04 20:08:33;;;;;;;30.40;20.20;;;;;;;22.70;35.46;99840.55;103529;1251;96530;-69
2023/07/04 20:11:02;;;;;;;27.10;19.30;;;;;;;22.66;35.59;99842.49;103782;1251;137903;-70
2023/07/04 20:13:31;;;;;;;29.70;19.20;;;;;;;22.61;35.57;99843.40;103477;1253;96485;-69
2023/07/04 20:16:01;;;;;;;30.60;19.70;;;;;;;22.58;35.72;99841.59;103349;1251;138089;-69
2023/07/04 20:18:28;;;;;;;31.30;19.80;;;;;;;22.53;35.89;99838.98;103475;1254;107210;-70
2023/07/04 20:20:57;;;;;;;32.90;20.60;;;;;;;22.48;36.29;99837.52;103493;1251;96442;-69
2023/07/04 20:23:24;;;;;;;28.30;20.50;;;;;;;22.42;36.38;99836.02;103349;1254;137349;-68
2023/07/04 20:25:53;;;;;;;28.50;20.50;;;;;;;22.37;36.46;99839.52;103419;1255;96443;-68
2023/07/04 20:28:23;;;;;;;30.40;19.30;;;;;;;22.33;36.33;99847.73;103318;1251;137453;-67
2023/07/04 20:30:54;;;;;;;31.10;20.60;;;;;;;22.28;36.46;99851.97;103414;1250;108638;-72
2023/07/04 20:33:21;;;;;;;32.30;19.10;;;;;;;22.24;36.59;99852.67;104732;1251;137809;-72
2023/07/04 20:35:49;;;;;;;29.10;19.30;;;;;;;22.20;36.42;99854.98;104903;1250;108576;-72
2023/07/04 20:38:18;;;;;;;27.40;19.20;;;;;;;22.16;36.63;99858.20;104819;1254;95309;-72
2023/07/04 20:40:47;;;;;;;32.40;20.90;;;;;;;22.11;36.66;99858.23;104905;1250;138304;-72
2023/07/04 20:43:15;;;;;;;27.90;20.00;;;;;;;22.08;36.90;99859.79;104901;1251;109307;-72
2023/07/04 20:45:45;;;;;;;32.60;19.90;;;;;;;22.04;36.81;99860.26;104319;1251;137919;-71
2023/07/04 20:48:20;;;;;;;27.20;19.40;;;;;;;22.00;36.81;99858.10;103444;1251;107775;-72
2023/07/04 20:50:49;;;;;;;27.40;18.90;;;;;;;21.99;37.02;99866.55;104145;1251;96626;-72
2023/07/04 20:53:18;;;;;;;28.30;19.70;;;;;;;21.96;37.10;99872.62;103674;1254;137741;-73
2023/07/04 20:55:57;;;;;;;27.20;18.90;;;;;;;21.94;37.19;99873.91;103520;1251;107738;-73
2023/07/04 20:58:26;;;;;;;27.90;18.80;;;;;;;21.91;37.25;99878.72;103316;1253;137584;-72
2023/07/04 21:00:54;;;;;;;28.50;19.50;;;;;;;21.89;37.28;99880.14;103735;1253;107923;-74
2023/07/04 21:03:23;;;;;;;30.50;20.10;;;;;;;21.86;37.53;99885.38;103840;1250;137745;-72
2023/07/04 21:05:54;;;;;;;32.20;21.30;;;;;;;21.82;37.69;99887.48;103486;1251;110877;-73
2023/07/04 21:08:26;;;;;;;29.40;20.40;;;;;;;21.77;37.83;99884.49;103486;1250;108543;-73
2023/07/04 21:11:02;;;;;;;31.10;20.00;;;;;;;21.74;38.01;99892.77;103483;1254;138136;-73
2023/07/04 21:13:30;;;;;;;30.10;21.00;;;;;;;21.69;38.19;99898.27;103480;1251;108382;-72
2023/07/04 21:16:05;;;;;;;29.40;19.90;;;;;;;21.63;38.27;99897.33;103376;1251;138486;-72
2023/07/04 21:18:34;;;;;;;30.00;21.50;;;;;;;21.59;38.43;99900.68;103549;1254;110997;-72
2023/07/04 21:21:02;;;;;;;29.80;20.40;;;;;;;21.56;38.45;99903.61;103463;1250;108549;-73
2023/07/04 21:23:29;;;;;;;28.20;20.00;;;;;;;21.53;38.55;99905.09;103508;1253;138070;-73
2023/07/04 21:25:59;;;;;;;30.80;21.00;;;;;;;21.51;38.75;99905.09;103517;1251;106609;-73
2023/07/04 21:28:27;;;;;;;28.30;19.70;;;;;;;21.49;38.70;99908.99;103452;1253;137564;-73
2023/07/04 21:31:03;;;;;;;29.40;20.20;;;;;;;21.46;38.87;99911.87;103565;1251;109778;-73
2023/07/04 21:33:30;;;;;;;29.70;19.50;;;;;;;21.43;39.05;99917.24;103377;1251;137800;-73
2023/07/04 21:35:59;;;;;;;30.90;21.30;;;;;;;21.40;39.20;99917.84;103581;1254;96430;-73
2023/07/04 21:38:29;;;;;;;29.80;20.70;;;;;;;21.37;39.27;99920.59;103524;1251;107741;-73
2023/07/04 21:40:57;;;;;;;33.10;21.30;;;;;;;21.33;39.62;99922.80;103431;1251;138030;-72
2023/07/04 21:43:24;;;;;;;29.40;20.80;;;;;;;21.31;39.85;99927.96;103506;1251;110086;-73
2023/07/04 21:45:58;;;;;;;30.20;20.70;;;;;;;21.26;39.84;99925.89;103437;1251;138454;-72
2023/07/04 21:48:26;;;;;;;27.40;19.80;;;;;;;21.22;39.97;99930.26;103554;1251;96447;-73
2023/07/04 21:50:54;;;;;;;32.30;20.60;;;;;;;21.18;39.79;99930.43;103533;1251;107896;-73
2023/07/04 21:53:21;;;;;;;31.30;21.20;;;;;;;21.11;40.08;99932.19;103500;1253;137767;-72
2023/07/04 21:55:49;;;;;;;34.20;19.80;;;;;;;21.06;39.98;99935.76;103591;1251;110956;-73
2023/07/04 21:58:16;;;;;;;28.80;20.40;;;;;;;21.03;39.90;99940.45;103414;1250;137538;-72
2023/07/04 22:00:44;;;;;;;31.40;19.60;;;;;;;20.99;40.02;99942.70;103570;1251;96437;-72
2023/07/04 22:03:15;;;;;;;27.90;19.50;;;;;;;20.96;40.19;99944.20;103563;1254;106626;-72
2023/07/04 22:05:43;;;;;;;29.80;19.30;;;;;;;20.92;40.27;99945.42;103495;1251;96320;-72
2023/07/04 22:08:13;;;;;;;31.80;19.10;;;;;;;20.88;40.37;99948.92;103537;1251;109128;-72
2023/07/04 22:10:41;;;;;;;32.80;20.20;;;;;;;20.83;40.61;99950.94;103371;1254;139071;-72
2023/07/04 22:13:07;;;;;;;28.60;19.20;;;;;;;20.79;40.66;99951.73;103476;1254;96522;-72
2023/07/04 22:15:35;;;;;;;27.80;20.00;;;;;;;20.75;40.81;99955.05;103363;1250;137590;-72
2023/07/04 22:18:02;;;;;;;34.00;20.30;;;;;;;20.70;41.05;99956.02;103570;1251;96427;-73
2023/07/04 22:20:29;;;;;;;36.10;21.40;;;;;;;20.66;41.08;99959.73;103499;1251;109319;-72
2023/07/04 22:22:57;;;;;;;34.60;20.90;;;;;;;20.61;41.37;99961.11;103387;1251;137675;-72
2023/07/04 22:25:24;;;;;;;30.10;20.00;;;;;;;20.57;41.41;99964.27;103583;1251;96369;-72
2023/07/04 22:27:51;;;;;;;34.80;19.40;;;;;;;20.54;41.50;99968.95;103377;1251;137530;-72
2023/07/04 22:30:18;;;;;;;35.40;21.00;;;;;;;20.49;41.42;99971.27;103567;1250;96418;-72
2023/07/04 22:32:45;;;;;;;27.70;20.30;;;;;;;20.45;41.61;99977.55;103578;1251;111170;-72
2023/07/04 22:35:12;;;;;;;31.50;20.40;;;;;;;20.42;41.63;99977.63;103703;1250;137597;-72
2023/07/04 22:37:39;;;;;;;34.40;20.10;;;;;;;20.38;41.80;99978.98;103577;1251;96485;-72
2023/07/04 22:40:08;;;;;;;29.30;20.00;;;;;;;20.34;41.95;99980.89;103446;1254;137578;-72
2023/07/04 22:42:36;;;;;;;28.60;18.80;;;;;;;20.30;41.83;99983.14;103831;1251;96426;-72
2023/07/04 22:45:04;;;;;;;30.10;19.90;;;;;;;20.27;42.10;99982.50;103674;1251;109170;-72
2023/07/04 22:47:31;;;;;;;32.90;19.70;;;;;;;20.24;42.06;99986.95;103426;1254;138040;-71
2023/07/04 22:49:58;;;;;;;27.10;19.80;;;;;;;20.21;42.33;99986.25;103570;1254;97199;-72
2023/07/04 22:52:25;;;;;;;32.70;20.50;;;;;;;20.18;42.53;99989.86;103626;1249;137535;-72
2023/07/04 22:54:53;;;;;;;31.60;20.50;;;;;;;20.15;42.81;99988.84;103544;1251;96552;-72
2023/07/04 22:57:20;;;;;;;29.00;21.40;;;;;;;20.12;42.94;99990.16;103371;1250;138004;-71
2023/07/04 22:59:47;;;;;;;34.60;21.30;;;;;;;20.09;43.09;99989.09;103437;1251;107654;-72
2023/07/04 23:02:15;;;;;;;34.70;21.10;;;;;;;20.08;43.18;99992.77;103443;1251;96322;-72
2023/07/04 23:04:42;;;;;;;28.00;20.80;;;;;;;20.04;43.17;99991.95;103373;1251;137982;-72
2023/07/04 23:07:09;;;;;;;31.30;20.70;;;;;;;20.01;43.24;99990.27;103571;1254;96633;-73
2023/07/04 23:09:36;;;;;;;31.00;20.10;;;;;;;19.98;43.22;99987.48;103445;1250;139138;-73
2023/07/04 23:12:04;;;;;;;33.30;20.40;;;;;;;19.96;43.37;99989.83;103510;1254;107304;-72
2023/07/04 23:14:32;;;;;;;31.80;20.30;;;;;;;19.92;43.12;99992.19;103745;1254;96527;-73
2023/07/04 23:16:59;;;;;;;31.00;19.50;;;;;;;19.90;43.48;99995.98;103391;1251;139218;-72
2023/07/04 23:19:26;;;;;;;28.60;19.60;;;;;;;19.87;43.57;99992.88;103547;1254;96399;-73
2023/07/04 23:21:53;;;;;;;31.70;20.70;;;;;;;19.85;43.80;99995.16;103472;1251;137621;-73
2023/07/04 23:24:20;;;;;;;30.40;20.30;;;;;;;19.84;43.84;99998.11;103530;1250;107955;-72
2023/07/04 23:26:47;;;;;;;28.40;19.60;;;;;;;19.80;43.95;100002.77;103618;1251;96427;-72
2023/07/04 23:29:15;;;;;;;29.80;21.50;;;;;;;19.76;44.08;100003.98;103400;1250;137670;-73
2023/07/04 23:31:42;;;;;;;31.50;21.40;;;;;;;19.72;44.31;100007.94;103549;1251;96516;-70
2023/07/04 23:34:09;;;;;;;32.10;21.50;;;;;;;19.69;44.35;100007.84;103388;1250;137797;-71
2023/07/04 23:36:36;;;;;;;33.70;22.80;;;;;;;19.66;44.66;100002.11;103429;1253;107600;-71
2023/07/04 23:39:05;;;;;;;30.60;20.70;;;;;;;19.63;44.84;100003.75;103539;1254;96424;-71
2023/07/04 23:41:32;;;;;;;33.70;20.10;;;;;;;19.58;44.77;99998.59;103472;1251;137490;-71
2023/07/04 23:44:00;;;;;;;30.30;20.20;;;;;;;19.55;44.83;100005.14;103601;1251;96548;-72
2023/07/04 23:46:27;;;;;;;33.90;20.80;;;;;;;19.52;44.89;100002.21;103372;1251;137570;-72
2023/07/04 23:48:54;;;;;;;29.80;20.20;;;;;;;19.49;45.03;100004.36;103476;1250;107914;-71